createdAt,value
2022-08-12T00:03:39.204Z,99198.63
2022-08-12T00:14:25.571Z,99200.73
2022-08-12T00:25:18.802Z,99196.20
2022-08-12T00:36:32.339Z,99193.80
2022-08-12T00:47:02.762Z,99193.98
2022-08-12T00:57:36.186Z,99195.33
2022-08-12T01:08:23.317Z,99200.88
2022-08-12T01:18:55.360Z,99197.81
2022-08-12T01:29:33.184Z,99193.48
2022-08-12T01:40:33.494Z,99177.21
2022-08-12T01:51:11.599Z,99177.95
2022-08-12T02:02:05.315Z,99173.60
2022-08-12T02:12:47.873Z,99170.92
2022-08-12T02:23:20.910Z,99168.05
2022-08-12T02:33:50.582Z,99164.40
2022-08-12T02:44:22.993Z,99160.02
2022-08-12T02:54:56.979Z,99161.20
2022-08-12T03:05:27.354Z,99153.19
2022-08-12T03:15:59.096Z,99150.67
2022-08-12T03:26:32.001Z,99146.95
2022-08-12T03:37:03.305Z,99142.71
2022-08-12T03:47:53.248Z,99137.58
2022-08-12T03:58:40.349Z,99140.52
2022-08-12T04:09:14.585Z,99140.31
2022-08-12T04:19:46.881Z,99137.13
2022-08-12T04:30:33.217Z,99145.27
2022-08-12T04:41:03.284Z,99145.75
2022-08-12T04:51:34.300Z,99149.92
2022-08-12T05:02:03.796Z,99150.62
2022-08-12T05:12:44.801Z,99141.22
2022-08-12T05:23:15.886Z,99153.02
2022-08-12T05:33:46.265Z,99158.46
2022-08-12T05:44:16.807Z,99160.05
2022-08-12T05:54:57.447Z,99159.15
2022-08-12T06:05:27.175Z,99158.42
2022-08-12T06:15:56.573Z,99157.82
2022-08-12T06:26:25.695Z,99157.45
2022-08-12T06:36:55.750Z,99155.46
2022-08-12T06:47:25.078Z,99159.16
2022-08-12T06:58:08.000Z,99159.55
2022-08-12T07:08:40.943Z,99159.36
2022-08-12T07:19:10.438Z,99153.92
2022-08-12T07:29:59.989Z,99150.80
2022-08-12T07:40:30.185Z,99148.95
2022-08-12T07:50:59.189Z,99140.40
2022-08-12T08:01:28.676Z,99137.60
2022-08-12T08:12:19.383Z,99141.92
2022-08-12T08:22:49.074Z,99158.30
2022-08-12T08:33:23.406Z,99162.89
2022-08-12T08:43:55.963Z,99149.63
2022-08-12T08:54:25.919Z,99149.01
2022-08-12T09:05:12.892Z,99149.91
2022-08-12T09:15:51.397Z,99139.66
2022-08-12T09:26:28.782Z,99152.36
2022-08-12T09:37:02.894Z,99148.00
2022-08-12T09:47:56.954Z,99148.55
2022-08-12T09:58:57.729Z,99136.31
2022-08-12T10:09:20.327Z,99132.56
2022-08-12T10:19:53.331Z,99120.58
2022-08-12T10:30:39.945Z,99110.73
2022-08-12T10:41:57.121Z,99103.08
2022-08-12T10:52:34.377Z,99087.39
2022-08-12T11:04:27.373Z,99065.58
2022-08-12T11:13:59.897Z,99052.74
2022-08-12T11:24:32.385Z,99048.46
2022-08-12T11:35:02.923Z,99058.71
2022-08-12T11:45:39.024Z,99068.92
2022-08-12T11:56:07.135Z,99051.78
2022-08-12T12:06:36.429Z,99036.40
2022-08-12T12:17:06.094Z,99041.42
2022-08-12T12:28:05.874Z,99041.59
2022-08-12T12:38:36.327Z,99031.88
2022-08-12T12:49:11.028Z,99034.66
2022-08-12T13:00:02.253Z,99016.23
2022-08-12T13:10:36.621Z,99005.43
2022-08-12T13:21:15.520Z,98994.87
2022-08-12T13:32:19.264Z,98985.20
2022-08-12T13:42:51.042Z,98972.64
2022-08-12T13:53:24.388Z,98962.72
2022-08-12T14:04:11.726Z,98954.53
2022-08-12T14:14:41.514Z,98956.31
2022-08-12T14:25:11.845Z,98955.56
2022-08-12T14:35:48.605Z,98939.73
2022-08-12T14:46:20.151Z,98923.44
2022-08-12T14:57:20.181Z,98915.07
2022-08-12T15:07:50.937Z,98906.82
2022-08-12T15:18:24.362Z,98910.62
2022-08-12T15:28:55.486Z,98912.44
2022-08-12T15:39:24.905Z,98910.80
2022-08-12T15:50:00.847Z,98909.77
2022-08-12T16:00:33.619Z,98907.06
2022-08-12T16:11:14.436Z,98901.17
2022-08-12T16:21:52.024Z,98899.78
2022-08-12T16:32:31.461Z,98889.19
2022-08-12T16:43:12.907Z,98883.38
2022-08-12T16:53:45.531Z,98875.04
2022-08-12T17:04:15.498Z,98864.92
2022-08-12T17:14:47.246Z,98856.11
2022-08-12T17:25:24.299Z,98848.85
2022-08-12T17:35:53.734Z,98853.75
2022-08-12T17:46:31.958Z,98857.77
2022-08-12T17:57:12.141Z,98858.04
2022-08-12T18:07:47.265Z,98866.77
2022-08-12T18:18:19.756Z,98870.61
2022-08-12T18:28:50.117Z,98868.55
2022-08-12T18:39:20.166Z,98869.62
2022-08-12T18:49:49.901Z,98876.71
2022-08-12T19:00:22.034Z,98875.90
2022-08-12T19:10:53.515Z,98884.96
2022-08-12T19:21:23.583Z,98879.14
2022-08-12T19:31:57.474Z,98884.59
2022-08-12T19:42:29.369Z,98890.65
2022-08-12T19:52:59.468Z,98892.67
2022-08-12T20:03:38.326Z,98882.46
2022-08-12T20:14:10.236Z,98882.66
2022-08-12T20:24:39.984Z,98892.91
2022-08-12T20:35:12.464Z,98895.33
2022-08-12T20:45:51.069Z,98904.90
2022-08-12T20:56:34.915Z,98901.23
2022-08-12T21:07:09.681Z,98897.41
2022-08-12T21:18:00.726Z,98899.73
2022-08-12T21:28:32.034Z,98893.27
2022-08-12T21:39:18.505Z,98884.38
2022-08-12T21:49:55.091Z,98884.80
2022-08-12T22:00:33.279Z,98874.33
2022-08-12T22:11:03.262Z,98875.68
2022-08-12T22:21:32.724Z,98868.27
2022-08-12T22:32:18.046Z,98879.10
2022-08-12T22:43:07.139Z,98871.41
2022-08-12T22:53:44.733Z,98862.33
2022-08-12T23:04:28.049Z,98852.28
2022-08-12T23:14:57.907Z,98840.64
2022-08-12T23:25:54.882Z,98833.20
2022-08-12T23:36:17.667Z,98822.68
2022-08-12T23:47:03.822Z,98815.91
2022-08-12T23:58:18.328Z,98813.77
